Time;durP1;ratioP1;P1;durP2;ratioP2;P2;SDS_P1;SDS_P2;PMS_P1;PMS_P2;Temp;Humidity;BMP_temperature;BMP_pressure;BME280_temperature;BME280_humidity;BME280_pressure;Samples;Min_cycle;Max_cycle;Signal;HPM_P1;HPM_P2
2022/09/04 00:01:38;;;;;;;9.00;7.60;;;;;;;9.53;89.15;97027.70;107870;1268;26291;-74
2022/09/04 00:04:21;;;;;;;8.50;7.10;;;;;;;9.58;89.47;97025.72;107901;1269;24237;-74
2022/09/04 00:07:03;;;;;;;9.90;7.40;;;;;;;9.66;89.55;97023.83;107943;1269;23075;-74
2022/09/04 00:09:41;;;;;;;8.60;6.90;;;;;;;9.73;89.64;97032.85;107826;1269;30658;-74
2022/09/04 00:12:13;;;;;;;9.30;6.80;;;;;;;9.77;89.71;97032.02;107888;1269;22633;-74
2022/09/04 00:14:51;;;;;;;8.20;6.40;;;;;;;9.81;89.67;97032.65;107805;1269;24159;-74
2022/09/04 00:17:29;;;;;;;8.40;7.00;;;;;;;9.73;89.25;97039.63;107934;1269;22527;-74
2022/09/04 00:20:06;;;;;;;8.20;6.60;;;;;;;9.59;89.44;97034.52;107799;1269;34690;-74
2022/09/04 00:22:51;;;;;;;8.20;6.70;;;;;;;9.54;90.08;97030.73;107916;1269;22527;-74
2022/09/04 00:25:25;;;;;;;9.30;7.00;;;;;;;9.56;90.48;97031.11;107914;1270;22585;-74
2022/09/04 00:28:05;;;;;;;7.60;6.80;;;;;;;9.59;90.68;97028.27;107919;1269;22542;-74
2022/09/04 00:30:49;;;;;;;8.40;6.50;;;;;;;9.65;91.11;97030.66;107861;1270;24781;-74
2022/09/04 00:33:26;;;;;;;7.10;6.30;;;;;;;9.68;90.76;97026.11;107919;1269;22541;-74
2022/09/04 00:36:02;;;;;;;8.50;6.90;;;;;;;9.66;90.56;97023.09;107833;1269;22553;-74
2022/09/04 00:38:42;;;;;;;8.50;7.20;;;;;;;9.54;90.56;97019.05;107908;1269;22540;-74
2022/09/04 00:41:23;;;;;;;7.80;7.00;;;;;;;9.50;91.16;97015.54;107823;1269;31450;-74
2022/09/04 00:44:27;;;;;;;8.90;7.20;;;;;;;9.54;91.20;97024.54;107935;1269;22640;-74
2022/09/04 00:47:17;;;;;;;8.20;6.90;;;;;;;9.49;90.74;97031.37;107887;1269;24417;-74
2022/09/04 00:50:06;;;;;;;8.10;7.20;;;;;;;9.37;91.09;97030.64;107740;1269;28070;-74
2022/09/04 00:53:09;;;;;;;8.60;6.90;;;;;;;9.29;91.54;97031.61;107908;1269;22541;-74
2022/09/04 00:56:14;;;;;;;8.70;6.80;;;;;;;9.29;92.18;97031.88;107837;1270;22527;-74
2022/09/04 00:58:59;;;;;;;8.60;7.30;;;;;;;9.43;92.95;97033.52;107933;1269;22681;-74
2022/09/04 01:01:30;;;;;;;7.70;6.80;;;;;;;9.55;93.15;97040.43;107918;1269;22619;-74
2022/09/04 01:04:31;;;;;;;8.00;7.20;;;;;;;9.66;93.50;97038.66;107955;1270;23881;-74
2022/09/04 01:07:22;;;;;;;7.10;6.30;;;;;;;9.74;93.31;97034.30;107889;1269;24232;-74
2022/09/04 01:10:18;;;;;;;7.50;6.50;;;;;;;9.81;93.42;97030.69;107881;1269;25486;-74
2022/09/04 01:12:57;;;;;;;8.90;7.30;;;;;;;10.00;94.01;97025.10;107933;1269;22694;-74
2022/09/04 01:15:36;;;;;;;9.20;7.40;;;;;;;10.05;93.25;97028.13;107915;1270;22519;-74
2022/09/04 01:18:13;;;;;;;7.80;6.90;;;;;;;9.98;92.55;97031.24;107913;1269;22635;-74
2022/09/04 01:21:13;;;;;;;8.30;7.30;;;;;;;9.95;92.38;97033.77;107856;1269;33505;-74
2022/09/04 01:24:16;;;;;;;6.80;5.60;;;;;;;9.93;92.60;97030.34;107901;1270;22540;-74
2022/09/04 01:26:53;;;;;;;8.20;6.70;;;;;;;9.94;92.89;97027.16;107936;1269;22625;-74
2022/09/04 01:29:39;;;;;;;9.00;6.90;;;;;;;9.96;93.07;97024.45;107871;1268;31033;-74
2022/09/04 01:32:18;;;;;;;7.80;6.40;;;;;;;9.97;93.03;97029.38;107989;1268;22712;-74
2022/09/04 01:35:01;;;;;;;8.70;7.00;;;;;;;9.99;92.90;97030.45;107924;1269;24423;-74
2022/09/04 01:37:46;;;;;;;8.20;6.30;;;;;;;10.00;92.87;97028.19;107923;1270;22530;-74
2022/09/04 01:40:38;;;;;;;7.80;6.80;;;;;;;10.04;92.93;97026.91;107839;1268;30541;-74
2022/09/04 01:43:12;;;;;;;9.10;6.90;;;;;;;10.05;92.75;97036.23;107922;1270;22708;-75
2022/09/04 01:46:17;;;;;;;9.30;7.40;;;;;;;9.99;92.58;97040.09;107962;1268;22666;-75
2022/09/04 01:48:55;;;;;;;8.40;7.10;;;;;;;9.94;92.87;97037.38;107797;1270;22525;-75
2022/09/04 01:51:44;;;;;;;10.00;7.20;;;;;;;10.00;93.29;97040.84;107838;1269;26062;-75
2022/09/04 01:54:30;;;;;;;9.70;6.90;;;;;;;10.08;93.34;97040.89;107974;1269;22561;-75
2022/09/04 01:57:13;;;;;;;8.90;7.40;;;;;;;10.10;93.22;97046.98;107940;1270;22527;-75
2022/09/04 01:59:54;;;;;;;8.90;7.30;;;;;;;10.08;93.03;97052.08;107874;1270;25766;-75
2022/09/04 02:02:28;;;;;;;;;;;;;;;10.06;92.92;97052.23;107974;1269;22522;-75
2022/09/04 02:05:13;;;;;;;7.80;6.80;;;;;;;10.12;93.30;97047.48;107944;1270;22734;-75
2022/09/04 02:07:49;;;;;;;9.20;6.80;;;;;;;10.17;93.53;97041.60;107957;1269;24275;-75
2022/09/04 02:10:36;;;;;;;8.10;6.70;;;;;;;10.17;93.59;97038.73;107880;1269;24408;-75
2022/09/04 02:13:22;;;;;;;7.00;6.30;;;;;;;10.18;93.77;97038.95;107917;1269;22541;-75
2022/09/04 02:16:07;;;;;;;9.60;6.90;;;;;;;10.22;93.81;97041.93;107929;1270;25430;-74
2022/09/04 02:18:50;;;;;;;7.80;7.00;;;;;;;10.25;93.78;97039.13;107921;1270;23375;-75
2022/09/04 02:21:31;;;;;;;7.60;6.70;;;;;;;10.26;93.56;97039.33;107841;1270;28425;-75
2022/09/04 02:24:13;;;;;;;9.40;7.10;;;;;;;10.27;93.57;97037.64;107931;1269;24371;-75
2022/09/04 02:26:51;;;;;;;7.80;6.90;;;;;;;10.27;93.66;97038.74;107946;1269;22549;-75
2022/09/04 02:29:32;;;;;;;8.50;7.10;;;;;;;10.28;93.56;97038.66;107877;1269;27024;-75
2022/09/04 02:32:04;;;;;;;;;;;;;;;10.22;93.43;97037.21;107922;1269;26735;-75
2022/09/04 02:34:43;;;;;;;9.50;7.20;;;;;;;10.18;93.52;97034.98;107910;1270;22620;-75
2022/09/04 02:37:21;;;;;;;7.90;6.60;;;;;;;10.21;93.67;97033.56;107836;1270;23152;-74
2022/09/04 02:40:02;;;;;;;8.00;7.00;;;;;;;10.24;93.67;97027.62;107793;1270;25503;-74
2022/09/04 02:42:44;;;;;;;9.20;7.40;;;;;;;10.31;93.83;97031.55;107899;1267;25357;-75
2022/09/04 02:45:30;;;;;;;10.10;7.50;;;;;;;10.36;93.77;97030.28;107911;1270;24394;-75
2022/09/04 02:48:12;;;;;;;9.20;7.20;;;;;;;10.37;93.71;97029.27;107966;1270;22528;-74
2022/09/04 02:50:59;;;;;;;8.10;6.90;;;;;;;10.36;93.85;97022.55;107914;1270;35476;-74
2022/09/04 02:53:39;;;;;;;8.80;7.50;;;;;;;10.40;94.15;97022.74;107921;1269;22533;-75
2022/09/04 02:56:25;;;;;;;8.80;7.30;;;;;;;10.47;94.27;97019.30;107905;1270;24256;-74
2022/09/04 02:59:20;;;;;;;8.10;6.40;;;;;;;10.51;94.25;97019.61;107830;1270;22539;-75
2022/09/04 03:01:58;;;;;;;8.20;6.60;;;;;;;10.55;94.12;97022.67;107951;1270;22616;-75
2022/09/04 03:04:39;;;;;;;9.40;7.30;;;;;;;10.53;93.84;97022.30;107988;1269;22608;-74
2022/09/04 03:07:18;;;;;;;8.30;7.20;;;;;;;10.51;93.72;97021.88;107951;1268;22755;-74
2022/09/04 03:09:51;;;;;;;9.20;7.50;;;;;;;10.53;93.80;97025.17;107850;1269;40668;-75
2022/09/04 03:12:35;;;;;;;9.00;7.50;;;;;;;10.56;93.77;97021.63;107942;1270;22603;-75
2022/09/04 03:15:14;;;;;;;9.20;6.90;;;;;;;10.54;93.58;97018.80;107956;1270;22555;-75
2022/09/04 03:17:57;;;;;;;8.70;6.80;;;;;;;10.53;93.77;97014.04;107956;1271;22679;-75
2022/09/04 03:20:31;;;;;;;8.30;6.80;;;;;;;10.56;94.15;97012.07;107876;1271;32268;-75
2022/09/04 03:23:12;;;;;;;8.50;6.30;;;;;;;10.59;94.38;97007.94;107848;1271;22552;-75
2022/09/04 03:26:10;;;;;;;8.90;7.10;;;;;;;10.57;94.34;97005.62;107920;1269;24444;-75
2022/09/04 03:28:53;;;;;;;10.70;7.50;;;;;;;10.61;94.81;97004.16;107917;1269;23110;-75
2022/09/04 03:31:37;;;;;;;8.70;6.60;;;;;;;10.67;94.66;97005.73;107816;1269;24143;-75
2022/09/04 03:34:28;;;;;;;9.20;7.70;;;;;;;10.66;94.40;97005.21;107934;1271;22531;-75
2022/09/04 03:37:14;;;;;;;9.40;8.00;;;;;;;10.63;93.88;97003.42;107852;1270;22564;-75
2022/09/04 03:39:59;;;;;;;8.40;6.70;;;;;;;10.59;93.62;97002.10;107881;1270;24624;-75
2022/09/04 03:42:39;;;;;;;8.80;7.00;;;;;;;10.55;93.73;97005.55;107916;1270;22684;-74
2022/09/04 03:45:25;;;;;;;9.90;6.90;;;;;;;10.57;94.36;97006.67;107925;1269;22551;-75
2022/09/04 03:48:11;;;;;;;8.40;7.30;;;;;;;10.63;94.77;97007.34;107905;1269;22677;-75
2022/09/04 03:50:50;;;;;;;8.60;7.30;;;;;;;10.69;95.24;97011.36;107900;1271;24372;-74
2022/09/04 03:53:30;;;;;;;9.60;7.00;;;;;;;10.76;95.49;97009.44;107906;1269;22549;-74
2022/09/04 03:56:38;;;;;;;8.30;6.90;;;;;;;10.81;95.66;97007.72;107913;1271;22588;-74
2022/09/04 03:59:16;;;;;;;8.50;7.20;;;;;;;10.83;95.69;97005.53;107852;1269;28829;-75
2022/09/04 04:01:57;;;;;;;9.30;7.40;;;;;;;10.85;95.79;97008.63;107922;1270;26570;-74
2022/09/04 04:05:11;;;;;;;7.80;6.80;;;;;;;10.86;95.80;97010.74;107930;1271;22536;-74
2022/09/04 04:07:53;;;;;;;10.40;7.30;;;;;;;10.84;95.58;97013.08;107943;1271;22536;-74
2022/09/04 04:10:34;;;;;;;8.20;6.70;;;;;;;10.85;95.22;97013.98;107881;1270;27643;-74
2022/09/04 04:13:21;;;;;;;8.30;7.00;;;;;;;10.87;95.12;97017.53;107921;1270;22622;-74
2022/09/04 04:16:03;;;;;;;8.10;6.70;;;;;;;10.88;94.84;97017.36;107905;1270;22545;-74
2022/09/04 04:18:53;;;;;;;8.50;6.80;;;;;;;10.88;94.49;97021.52;107889;1271;22542;-74
2022/09/04 04:21:49;;;;;;;7.50;6.70;;;;;;;10.88;94.37;97025.23;107826;1271;43315;-74
2022/09/04 04:24:40;;;;;;;9.30;6.50;;;;;;;10.91;94.33;97024.67;107912;1271;22534;-74
2022/09/04 04:27:36;;;;;;;9.20;7.30;;;;;;;11.27;94.65;97024.08;107902;1271;22543;-74
2022/09/04 04:30:13;;;;;;;6.70;5.90;;;;;;;11.99;94.99;97030.51;107693;1271;25027;-74
2022/09/04 04:33:15;;;;;;;9.50;6.80;;;;;;;12.57;93.36;97033.39;107942;1271;22523;-74
2022/09/04 04:35:56;;;;;;;8.70;6.80;;;;;;;12.76;91.48;97037.73;107876;1271;22544;-74
2022/09/04 04:38:32;;;;;;;;;;;;;;;12.67;89.95;97042.08;108014;1271;22919;-74
2022/09/04 04:42:03;;;;;;;8.50;6.20;;;;;;;12.42;89.45;97043.90;107950;1270;31810;-74
2022/09/04 04:48:00;;;;;;;7.60;5.50;;;;;;;13.19;90.71;97049.22;107875;1270;22537;-74
2022/09/04 04:50:41;;;;;;;8.20;6.00;;;;;;;13.38;89.00;97052.78;107830;1271;24302;-73
2022/09/04 04:53:19;;;;;;;8.50;6.00;;;;;;;13.40;88.61;97051.59;107859;1271;24180;-74
2022/09/04 04:55:57;;;;;;;6.00;5.10;;;;;;;14.02;89.54;97057.31;107855;1271;22531;-74
2022/09/04 04:58:52;;;;;;;5.40;4.90;;;;;;;14.96;89.18;97057.67;107739;1271;22525;-74
2022/09/04 05:01:35;;;;;;;5.70;4.80;;;;;;;16.05;87.23;97053.30;107801;1271;32448;-75
2022/09/04 05:04:17;;;;;;;5.90;5.00;;;;;;;16.91;85.30;97055.90;107817;1270;22651;-75
2022/09/04 05:06:55;;;;;;;6.30;4.90;;;;;;;17.80;83.32;97053.59;107815;1271;22628;-75
2022/09/04 05:09:37;;;;;;;6.30;4.90;;;;;;;18.45;80.61;97057.41;107678;1271;30588;-74
2022/09/04 05:12:20;;;;;;;5.30;4.60;;;;;;;18.64;78.14;97061.92;107884;1270;22553;-74
2022/09/04 05:14:58;;;;;;;5.10;4.60;;;;;;;19.01;77.60;97060.66;107870;1271;22522;-75
2022/09/04 05:17:38;;;;;;;5.60;4.50;;;;;;;20.02;76.66;97058.55;107882;1271;22567;-75
2022/09/04 05:20:29;;;;;;;5.20;4.50;;;;;;;20.89;73.89;97061.59;107801;1271;27001;-75
2022/09/04 05:23:13;;;;;;;4.20;3.70;;;;;;;21.48;71.29;97062.79;107843;1271;22537;-75
2022/09/04 05:25:52;;;;;;;3.80;3.30;;;;;;;22.22;69.23;97066.64;107870;1271;22662;-75
2022/09/04 05:28:33;;;;;;;4.70;3.80;;;;;;;22.75;67.13;97066.58;107857;1270;22575;-75
2022/09/04 05:31:15;;;;;;;4.40;3.70;;;;;;;23.22;65.19;97073.55;107773;1271;35221;-75
2022/09/04 05:34:00;;;;;;;4.50;3.60;;;;;;;23.81;63.72;97070.80;107893;1270;22541;-75
2022/09/04 05:36:44;;;;;;;3.90;3.50;;;;;;;23.73;61.14;97075.21;107882;1271;24432;-75
2022/09/04 05:39:25;;;;;;;5.40;3.90;;;;;;;23.01;60.22;97076.42;107817;1271;30799;-75
2022/09/04 05:42:13;;;;;;;4.30;3.70;;;;;;;23.38;60.13;97083.81;107865;1271;22531;-75
2022/09/04 05:44:57;;;;;;;4.60;3.40;;;;;;;23.84;58.86;97083.91;107907;1268;22909;-75
2022/09/04 05:47:42;;;;;;;4.30;3.50;;;;;;;24.63;58.19;97080.33;108004;1271;22588;-75
2022/09/04 05:50:46;;;;;;;4.40;3.70;;;;;;;25.04;56.63;97080.27;107969;1270;28158;-76
2022/09/04 05:53:39;;;;;;;3.50;3.10;;;;;;;25.43;54.74;97082.27;107782;1271;22536;-75
2022/09/04 05:56:47;;;;;;;4.40;3.20;;;;;;;25.94;54.41;97086.25;107907;1269;22534;-76
2022/09/04 06:00:00;;;;;;;3.80;3.50;;;;;;;26.82;53.16;97085.73;107845;1269;28819;-76
2022/09/04 06:03:16;;;;;;;4.60;3.30;;;;;;;27.52;51.27;97087.73;107577;1276;25793;-76
2022/09/04 06:06:03;;;;;;;4.70;3.00;;;;;;;27.72;49.94;97090.17;107903;1271;22525;-76
2022/09/04 06:08:51;;;;;;;3.70;3.10;;;;;;;26.77;48.97;97089.73;107910;1270;24395;-76
2022/09/04 06:11:46;;;;;;;5.30;3.40;;;;;;;26.39;49.70;97091.37;107809;1270;32508;-76
2022/09/04 06:14:38;;;;;;;3.70;3.40;;;;;;;25.94;49.38;97091.45;107881;1270;24166;-75
2022/09/04 06:17:23;;;;;;;3.60;3.20;;;;;;;25.68;48.28;97090.02;107901;1270;22540;-75
2022/09/04 06:20:21;;;;;;;4.60;3.80;;;;;;;24.04;48.44;97095.11;107850;1269;25503;-75
2022/09/04 06:23:20;;;;;;;5.40;3.90;;;;;;;23.62;49.45;97100.33;107873;1270;23071;-75
2022/09/04 06:26:16;;;;;;;4.10;3.60;;;;;;;23.28;51.16;97100.88;107887;1270;22525;-75
2022/09/04 06:29:11;;;;;;;4.50;4.00;;;;;;;23.31;50.55;97101.03;107869;1271;22600;-75
2022/09/04 06:32:24;;;;;;;3.90;3.50;;;;;;;21.90;50.62;97106.95;107882;1270;22582;-74
2022/09/04 06:35:17;;;;;;;4.10;3.70;;;;;;;20.16;52.70;97111.67;107889;1270;22612;-75
2022/09/04 06:38:07;;;;;;;4.00;3.60;;;;;;;19.36;54.46;97115.85;107890;1269;25288;-74
2022/09/04 06:40:52;;;;;;;4.50;3.90;;;;;;;19.07;56.00;97122.23;107815;1269;31657;-74
2022/09/04 06:43:33;;;;;;;4.80;4.30;;;;;;;18.89;57.20;97120.58;107883;1270;25412;-74
2022/09/04 06:46:15;;;;;;;5.80;4.60;;;;;;;18.77;57.85;97117.80;107880;1270;22793;-74
2022/09/04 06:48:59;;;;;;;5.20;4.70;;;;;;;18.61;58.45;97118.98;107897;1270;22548;-74
2022/09/04 06:51:43;;;;;;;5.10;4.60;;;;;;;18.39;58.66;97123.11;107889;1270;22620;-74
2022/09/04 06:54:21;;;;;;;6.60;5.60;;;;;;;18.22;59.43;97125.25;107892;1270;22527;-74
2022/09/04 06:57:09;;;;;;;6.30;5.30;;;;;;;18.10;60.07;97124.79;107915;1268;23194;-74
2022/09/04 07:00:04;;;;;;;6.90;5.50;;;;;;;17.94;60.73;97123.81;107782;1269;40520;-74
2022/09/04 07:02:49;;;;;;;6.50;5.20;;;;;;;17.79;61.29;97124.66;107807;1270;24326;-75
2022/09/04 07:05:27;;;;;;;7.00;5.90;;;;;;;17.61;61.90;97129.60;107902;1270;22531;-75
2022/09/04 07:08:09;;;;;;;8.30;5.60;;;;;;;17.51;62.28;97132.60;107899;1270;23329;-75
2022/09/04 07:10:45;;;;;;;6.30;5.50;;;;;;;17.39;62.80;97135.49;107818;1269;32434;-75
2022/09/04 07:13:42;;;;;;;6.70;6.00;;;;;;;17.25;63.47;97135.56;107905;1268;22616;-75
2022/09/04 07:16:36;;;;;;;7.00;6.30;;;;;;;17.17;63.72;97136.51;107890;1269;25250;-75
2022/09/04 07:19:36;;;;;;;7.00;6.30;;;;;;;16.88;64.24;97140.65;107813;1270;37213;-75
2022/09/04 07:22:23;;;;;;;7.20;6.50;;;;;;;16.37;64.69;97139.58;107890;1269;22530;-75
2022/09/04 07:25:07;;;;;;;7.20;6.50;;;;;;;15.89;66.09;97144.98;107889;1270;22752;-75
2022/09/04 07:27:51;;;;;;;8.20;7.00;;;;;;;15.74;67.28;97148.55;107880;1270;22679;-75
2022/09/04 07:30:24;;;;;;;9.00;7.20;;;;;;;15.74;67.70;97151.48;107796;1270;27688;-75
2022/09/04 07:33:02;;;;;;;8.30;7.50;;;;;;;15.64;68.83;97152.76;107876;1269;22522;-75
2022/09/04 07:35:40;;;;;;;8.10;7.20;;;;;;;15.50;69.58;97153.60;107859;1269;22527;-75
2022/09/04 07:38:21;;;;;;;9.20;7.60;;;;;;;15.34;70.44;97153.79;107854;1270;22696;-75
2022/09/04 07:40:58;;;;;;;8.70;7.80;;;;;;;15.26;70.76;97156.44;107828;1269;30081;-75
2022/09/04 07:43:38;;;;;;;8.70;7.80;;;;;;;15.21;71.41;97156.26;107919;1268;22541;-75
2022/09/04 07:46:19;;;;;;;8.20;7.30;;;;;;;15.30;71.86;97158.50;107905;1270;24339;-75
2022/09/04 07:48:57;;;;;;;9.20;7.80;;;;;;;15.42;72.30;97163.09;107884;1269;22544;-75
2022/09/04 07:51:36;;;;;;;8.60;7.70;;;;;;;15.65;72.72;97167.81;107795;1269;25774;-75
2022/09/04 07:54:33;;;;;;;8.20;7.30;;;;;;;15.86;72.63;97173.02;107762;1271;22540;-75
2022/09/04 07:57:30;;;;;;;8.50;7.10;;;;;;;15.95;72.42;97174.98;107812;1270;22530;-75
2022/09/04 08:00:09;;;;;;;9.60;7.90;;;;;;;15.92;72.28;97176.44;107800;1269;30238;-75
2022/09/04 08:03:10;;;;;;;8.10;7.30;;;;;;;15.83;72.55;97178.80;107882;1270;22551;-75
2022/09/04 08:05:48;;;;;;;7.80;7.00;;;;;;;15.79;72.42;97181.73;107854;1269;22570;-75
2022/09/04 08:08:52;;;;;;;7.70;7.00;;;;;;;15.80;72.82;97187.10;107921;1268;23673;-75
2022/09/04 08:11:44;;;;;;;8.10;7.20;;;;;;;15.75;72.81;97190.70;107807;1268;29838;-75
2022/09/04 08:14:33;;;;;;;9.20;8.10;;;;;;;15.78;73.08;97188.02;107908;1270;22574;-74
2022/09/04 08:17:35;;;;;;;8.60;7.20;;;;;;;15.66;72.73;97188.98;107873;1270;25303;-74
2022/09/04 08:20:25;;;;;;;7.40;6.60;;;;;;;15.63;73.26;97189.30;107772;1268;25248;-74
2022/09/04 08:23:04;;;;;;;9.20;7.40;;;;;;;15.59;73.62;97189.02;107881;1270;22545;-74
2022/09/04 08:25:51;;;;;;;8.50;6.40;;;;;;;15.41;73.90;97193.24;107936;1269;23710;-74
2022/09/04 08:28:44;;;;;;;7.60;6.80;;;;;;;15.46;74.50;97199.24;107890;1270;22547;-74
2022/09/04 08:31:23;;;;;;;7.20;6.20;;;;;;;15.48;74.52;97205.52;107818;1268;43513;-74
2022/09/04 08:34:11;;;;;;;7.70;6.50;;;;;;;15.56;75.04;97206.77;107901;1269;25577;-74
2022/09/04 08:36:51;;;;;;;7.40;6.70;;;;;;;15.61;75.15;97212.73;107911;1269;22530;-74
2022/09/04 08:39:38;;;;;;;9.40;7.50;;;;;;;15.70;75.09;97212.95;107811;1269;39357;-74
2022/09/04 08:42:55;;;;;;;8.30;7.50;;;;;;;15.81;75.04;97212.21;107816;1269;22694;-74
2022/09/04 08:46:18;;;;;;;10.00;8.20;;;;;;;16.20;75.99;97210.57;107877;1270;24213;-75
2022/09/04 08:49:32;;;;;;;7.20;6.50;;;;;;;19.15;75.39;97207.61;107901;1269;22535;-74
2022/09/04 08:52:40;;;;;;;7.90;6.80;;;;;;;20.26;69.96;97203.09;106487;1269;1660266;-75
2022/09/04 08:55:55;;;;;;;9.10;7.30;;;;;;;20.02;67.36;97203.77;107897;1269;22619;-75
2022/09/04 08:59:05;;;;;;;9.20;7.30;;;;;;;19.43;66.13;97209.54;107904;1270;22521;-74
2022/09/04 09:02:02;;;;;;;9.70;7.70;;;;;;;18.81;66.58;97210.72;107905;1268;22527;-75
2022/09/04 09:05:00;;;;;;;8.20;7.30;;;;;;;18.39;67.24;97210.56;107896;1270;24619;-74
2022/09/04 09:08:13;;;;;;;8.40;7.60;;;;;;;18.06;68.11;97214.14;107888;1269;22534;-74
2022/09/04 09:11:11;;;;;;;8.50;7.70;;;;;;;17.87;69.20;97207.42;107882;1269;23643;-75
2022/09/04 09:14:36;;;;;;;7.80;7.00;;;;;;;17.90;69.45;97208.87;107835;1268;22544;-74
2022/09/04 09:17:23;;;;;;;8.70;7.90;;;;;;;17.81;69.43;97206.69;107921;1269;24230;-75
2022/09/04 09:20:12;;;;;;;9.20;7.60;;;;;;;17.56;69.59;97209.47;107760;1270;32058;-75
2022/09/04 09:23:16;;;;;;;7.70;6.90;;;;;;;17.36;70.17;97207.89;107934;1270;22525;-75
2022/09/04 09:26:07;;;;;;;9.30;7.80;;;;;;;17.22;70.48;97211.39;107946;1271;22616;-75
2022/09/04 09:28:56;;;;;;;;;;;;;;;16.92;71.00;97215.70;107944;1271;22679;-76
2022/09/04 09:31:53;;;;;;;8.00;7.20;;;;;;;16.77;71.93;97221.70;107876;1270;24476;-75
2022/09/04 09:35:23;;;;;;;7.40;6.60;;;;;;;16.87;72.93;97217.55;107948;1270;24425;-75
2022/09/04 09:38:19;;;;;;;8.80;7.70;;;;;;;17.06;72.76;97217.41;107901;1270;22521;-75
2022/09/04 09:41:33;;;;;;;8.30;7.10;;;;;;;17.21;72.85;97219.94;107866;1270;28276;-75
2022/09/04 09:44:40;;;;;;;7.70;6.90;;;;;;;17.03;71.94;97224.02;107942;1270;22555;-75
2022/09/04 09:47:42;;;;;;;8.50;7.20;;;;;;;16.83;72.58;97225.55;107863;1269;24466;-76
2022/09/04 09:50:43;;;;;;;8.70;7.80;;;;;;;16.77;72.87;97231.71;107860;1270;31207;-76
2022/09/04 09:53:53;;;;;;;9.00;7.90;;;;;;;16.72;73.09;97225.48;107972;1270;22549;-75
2022/09/04 09:56:47;;;;;;;8.30;7.50;;;;;;;16.79;73.66;97227.70;107860;1270;22542;-76
2022/09/04 09:59:53;;;;;;;9.20;8.10;;;;;;;16.85;73.89;97230.00;107887;1270;26244;-75
2022/09/04 10:02:52;;;;;;;8.90;8.00;;;;;;;16.82;73.79;97231.59;107971;1270;22530;-75
2022/09/04 10:05:58;;;;;;;11.30;8.40;;;;;;;16.81;74.34;97235.21;107895;1270;22598;-76
2022/09/04 10:08:56;;;;;;;8.50;7.70;;;;;;;16.95;74.87;97235.26;107956;1270;22548;-75
2022/09/04 10:12:05;;;;;;;8.90;8.00;;;;;;;17.06;74.59;97238.30;107860;1270;37510;-76
2022/09/04 10:15:07;;;;;;;8.80;7.60;;;;;;;17.15;74.92;97242.65;107883;1270;22534;-76
2022/09/04 10:18:14;;;;;;;7.80;7.00;;;;;;;17.30;74.75;97244.54;107916;1270;25367;-75
2022/09/04 10:21:12;;;;;;;7.40;6.70;;;;;;;17.41;74.38;97249.15;107879;1270;28350;-75
2022/09/04 10:24:11;;;;;;;8.60;7.00;;;;;;;17.44;74.11;97255.48;107920;1270;22521;-75
2022/09/04 10:27:15;;;;;;;8.50;7.70;;;;;;;17.39;73.57;97256.91;107962;1270;22744;-76
2022/09/04 10:30:02;;;;;;;9.10;7.50;;;;;;;17.28;73.97;97258.24;107814;1270;24812;-75
2022/09/04 10:33:03;;;;;;;8.50;7.60;;;;;;;17.30;73.97;97265.33;107935;1269;22606;-75
2022/09/04 10:35:38;;;;;;;;;;;;;;;17.24;73.75;97261.35;107891;1269;22565;-75
2022/09/04 10:38:26;;;;;;;7.20;6.30;;;;;;;17.00;73.29;97264.82;107923;1269;22529;-75
2022/09/04 10:41:27;;;;;;;8.30;6.60;;;;;;;16.78;73.74;97265.46;107911;1269;32209;-75
2022/09/04 10:44:27;;;;;;;;;;;;;;;16.72;73.87;97271.09;107767;1270;22593;-75
2022/09/04 10:47:09;;;;;;;8.00;7.20;;;;;;;16.72;74.44;97271.70;107934;1269;23182;-75
2022/09/04 10:49:58;;;;;;;8.20;7.40;;;;;;;16.79;74.59;97278.99;107918;1269;23280;-75
2022/09/04 10:53:09;;;;;;;8.60;6.80;;;;;;;16.86;75.43;97280.70;107881;1269;22597;-75
2022/09/04 10:56:05;;;;;;;6.90;6.20;;;;;;;16.99;75.53;97276.94;107746;1269;22531;-75
2022/09/04 10:59:28;;;;;;;6.70;6.00;;;;;;;17.01;75.18;97284.27;107905;1269;22630;-75
2022/09/04 11:02:36;;;;;;;6.50;5.80;;;;;;;17.09;75.11;97283.55;107584;1274;22542;-75
2022/09/04 11:05:31;;;;;;;6.20;5.60;;;;;;;16.97;75.12;97285.02;107520;1274;22517;-75
2022/09/04 11:08:41;;;;;;;5.30;4.80;;;;;;;17.00;75.67;97278.52;107862;1269;22624;-75
2022/09/04 11:11:33;;;;;;;6.80;6.10;;;;;;;16.89;75.15;97282.86;107661;1270;25688;-75
2022/09/04 11:14:43;;;;;;;7.40;6.40;;;;;;;16.76;75.41;97282.00;107965;1269;22590;-75
2022/09/04 11:17:37;;;;;;;7.70;6.50;;;;;;;16.78;75.59;97284.87;107741;1268;22543;-75
2022/09/04 11:24:12;;;;;;;7.20;6.30;;;;;;;16.76;75.79;97288.64;104391;1309;545659;-75
2022/09/04 11:27:15;;;;;;;7.30;6.40;;;;;;;16.77;76.19;97287.58;107361;1280;22557;-75
2022/09/04 11:29:58;;;;;;;8.70;7.50;;;;;;;16.79;75.79;97288.79;107217;1280;33982;-75
2022/09/04 11:32:51;;;;;;;8.30;6.70;;;;;;;16.85;75.90;97289.73;107267;1283;23801;-75
2022/09/04 11:35:41;;;;;;;6.80;6.10;;;;;;;16.85;76.20;97289.30;107486;1280;22687;-75
2022/09/04 11:38:27;;;;;;;6.60;5.90;;;;;;;16.95;76.39;97290.53;106513;1274;1468033;-76
2022/09/04 11:41:27;;;;;;;7.40;6.40;;;;;;;16.87;75.78;97298.31;107545;1274;35290;-76
2022/09/04 11:44:28;;;;;;;6.80;6.20;;;;;;;16.76;76.11;97298.14;107620;1274;24275;-75
2022/09/04 11:47:41;;;;;;;6.90;6.20;;;;;;;16.76;76.38;97295.57;107676;1274;22526;-75
2022/09/04 11:50:29;;;;;;;7.00;6.30;;;;;;;16.74;76.50;97296.02;108110;1268;42073;-76
2022/09/04 11:53:30;;;;;;;7.00;5.90;;;;;;;16.68;76.41;97295.35;108168;1268;22681;-76
2022/09/04 11:56:27;;;;;;;5.70;5.20;;;;;;;16.75;76.72;97291.20;108016;1268;22526;-75
2022/09/04 11:59:16;;;;;;;6.50;5.90;;;;;;;16.81;76.56;97288.64;108179;1268;22760;-75
2022/09/04 12:02:10;;;;;;;5.80;5.30;;;;;;;16.87;77.02;97292.25;108189;1267;22523;-76
2022/09/04 12:05:07;;;;;;;6.10;5.50;;;;;;;16.95;77.14;97291.19;108166;1267;22506;-75
2022/09/04 12:07:58;;;;;;;5.80;5.20;;;;;;;16.91;77.03;97294.70;108201;1267;22535;-75
2022/09/04 12:10:51;;;;;;;5.50;4.70;;;;;;;16.85;77.00;97288.06;108005;1268;31897;-75
2022/09/04 12:13:56;;;;;;;5.50;5.00;;;;;;;16.70;77.04;97297.66;108204;1267;22550;-76
2022/09/04 12:17:14;;;;;;;5.20;4.50;;;;;;;16.65;77.47;97294.10;108197;1267;27074;-75
2022/09/04 12:20:23;;;;;;;5.20;4.40;;;;;;;16.73;77.96;97292.23;108031;1268;26473;-75
2022/09/04 12:23:27;;;;;;;5.50;4.90;;;;;;;16.84;78.22;97290.02;107864;1268;24259;-75
2022/09/04 12:26:30;;;;;;;5.60;4.30;;;;;;;16.91;78.34;97289.33;108162;1267;22541;-75
2022/09/04 12:29:27;;;;;;;5.30;4.80;;;;;;;16.98;78.19;97285.53;108065;1267;24390;-76
2022/09/04 12:32:32;;;;;;;6.10;5.20;;;;;;;17.03;78.06;97284.88;108044;1267;22532;-75
2022/09/04 12:35:25;;;;;;;5.90;5.30;;;;;;;17.02;77.56;97287.11;108029;1267;22515;-75
2022/09/04 12:38:24;;;;;;;4.50;4.10;;;;;;;17.00;77.88;97284.98;108183;1267;22612;-75
2022/09/04 12:41:02;;;;;;;5.70;4.90;;;;;;;17.06;77.99;97292.64;108124;1268;26517;-75
2022/09/04 12:43:47;;;;;;;5.00;4.50;;;;;;;17.09;77.91;97294.39;108181;1268;22532;-75
2022/09/04 12:46:34;;;;;;;6.00;5.00;;;;;;;17.13;77.85;97295.37;108164;1268;23109;-75
2022/09/04 12:49:25;;;;;;;5.70;4.80;;;;;;;17.09;77.34;97297.30;108098;1268;27032;-75
2022/09/04 12:52:09;;;;;;;6.00;5.00;;;;;;;17.01;77.31;97294.83;108198;1267;25310;-75
2022/09/04 12:54:47;;;;;;;5.50;5.00;;;;;;;16.98;77.58;97299.34;108074;1268;22521;-75
2022/09/04 12:57:32;;;;;;;6.50;4.90;;;;;;;17.03;77.68;97301.71;108189;1268;22534;-75
2022/09/04 13:00:09;;;;;;;5.50;4.60;;;;;;;17.03;77.61;97305.67;108065;1268;32901;-75
2022/09/04 13:02:53;;;;;;;5.10;4.60;;;;;;;17.05;77.75;97301.18;108123;1267;22703;-75
2022/09/04 13:05:37;;;;;;;4.90;4.20;;;;;;;17.05;77.43;97304.08;108173;1268;25246;-75
2022/09/04 13:08:19;;;;;;;5.80;4.90;;;;;;;17.00;77.23;97306.12;108147;1268;24238;-75
2022/09/04 13:11:00;;;;;;;6.40;5.30;;;;;;;16.89;77.20;97305.34;108066;1267;30455;-75
2022/09/04 13:13:44;;;;;;;5.80;5.20;;;;;;;16.91;77.57;97308.83;108167;1268;25396;-75
2022/09/04 13:16:26;;;;;;;6.80;6.10;;;;;;;16.96;77.34;97314.30;108176;1267;22525;-75
2022/09/04 13:19:10;;;;;;;6.10;5.40;;;;;;;16.96;77.36;97310.14;108061;1267;22512;-75